sensor_id;sensor_type;location;lat;lon;timestamp;temperature;humidity
14485;DHT22;7328;50.812;4.422;2022-07-29T00:00:44;3.90;99.20
14485;DHT22;7328;50.812;4.422;2022-07-29T00:03:11;3.70;98.70
14485;DHT22;7328;50.812;4.422;2022-07-29T00:05:41;4.00;98.40
14485;DHT22;7328;50.812;4.422;2022-07-29T00:08:08;4.40;99.00
14485;DHT22;7328;50.812;4.422;2022-07-29T00:10:34;4.40;98.80
14485;DHT22;7328;50.812;4.422;2022-07-29T00:13:01;4.40;99.40
14485;DHT22;7328;50.812;4.422;2022-07-29T00:15:27;14.60;99.90
14485;DHT22;7328;50.812;4.422;2022-07-29T00:17:53;14.50;99.90
14485;DHT22;7328;50.812;4.422;2022-07-29T00:20:18;13.90;99.90
14485;DHT22;7328;50.812;4.422;2022-07-29T00:22:44;14.10;99.90
14485;DHT22;7328;50.812;4.422;2022-07-29T00:25:12;12.10;99.90
14485;DHT22;7328;50.812;4.422;2022-07-29T00:27:41;12.90;99.90
14485;DHT22;7328;50.812;4.422;2022-07-29T00:30:07;14.00;99.90
14485;DHT22;7328;50.812;4.422;2022-07-29T00:32:33;14.50;99.90
14485;DHT22;7328;50.812;4.422;2022-07-29T00:34:59;15.80;99.90
14485;DHT22;7328;50.812;4.422;2022-07-29T00:37:43;17.90;99.90
14485;DHT22;7328;50.812;4.422;2022-07-29T00:40:09;18.50;99.90
14485;DHT22;7328;50.812;4.422;2022-07-29T00:42:48;18.80;99.90
14485;DHT22;7328;50.812;4.422;2022-07-29T00:45:15;18.90;99.90
14485;DHT22;7328;50.812;4.422;2022-07-29T00:47:41;18.90;99.90
14485;DHT22;7328;50.812;4.422;2022-07-29T00:50:10;18.90;99.90
14485;DHT22;7328;50.812;4.422;2022-07-29T00:52:37;18.80;99.90
14485;DHT22;7328;50.812;4.422;2022-07-29T00:55:05;18.80;99.90
14485;DHT22;7328;50.812;4.422;2022-07-29T00:57:31;18.70;99.90
14485;DHT22;7328;50.812;4.422;2022-07-29T00:59:58;18.70;99.90
14485;DHT22;7328;50.812;4.422;2022-07-29T01:02:24;18.60;99.90
14485;DHT22;7328;50.812;4.422;2022-07-29T01:04:50;18.50;99.90
14485;DHT22;7328;50.812;4.422;2022-07-29T01:07:17;18.50;99.90
14485;DHT22;7328;50.812;4.422;2022-07-29T01:09:44;18.30;99.90
14485;DHT22;7328;50.812;4.422;2022-07-29T01:12:19;18.20;99.90
14485;DHT22;7328;50.812;4.422;2022-07-29T01:14:46;18.00;99.90
14485;DHT22;7328;50.812;4.422;2022-07-29T01:23:26;17.00;99.90
14485;DHT22;7328;50.812;4.422;2022-07-29T01:31:20;13.90;99.90
14485;DHT22;7328;50.812;4.422;2022-07-29T01:33:52;8.60;99.90
14485;DHT22;7328;50.812;4.422;2022-07-29T01:36:35;8.70;99.90
14485;DHT22;7328;50.812;4.422;2022-07-29T01:39:29;8.40;99.90
14485;DHT22;7328;50.812;4.422;2022-07-29T01:47:31;16.90;99.90
14485;DHT22;7328;50.812;4.422;2022-07-29T01:49:59;17.30;99.90
14485;DHT22;7328;50.812;4.422;2022-07-29T01:52:36;17.50;99.90
14485;DHT22;7328;50.812;4.422;2022-07-29T01:55:09;17.60;99.90
14485;DHT22;7328;50.812;4.422;2022-07-29T01:57:38;17.60;99.90
14485;DHT22;7328;50.812;4.422;2022-07-29T02:00:06;17.60;99.90
14485;DHT22;7328;50.812;4.422;2022-07-29T02:02:33;17.60;99.90
14485;DHT22;7328;50.812;4.422;2022-07-29T02:05:02;17.60;99.90
14485;DHT22;7328;50.812;4.422;2022-07-29T02:07:29;17.60;99.90
14485;DHT22;7328;50.812;4.422;2022-07-29T02:09:58;17.60;99.90
14485;DHT22;7328;50.812;4.422;2022-07-29T02:12:25;17.60;99.90
14485;DHT22;7328;50.812;4.422;2022-07-29T02:14:53;17.50;99.90
14485;DHT22;7328;50.812;4.422;2022-07-29T02:17:27;17.50;99.90
14485;DHT22;7328;50.812;4.422;2022-07-29T02:19:59;17.50;99.90
14485;DHT22;7328;50.812;4.422;2022-07-29T02:22:28;17.40;99.90
14485;DHT22;7328;50.812;4.422;2022-07-29T02:24:55;17.40;99.90
14485;DHT22;7328;50.812;4.422;2022-07-29T02:27:23;17.30;99.90
14485;DHT22;7328;50.812;4.422;2022-07-29T02:29:51;17.30;99.90
14485;DHT22;7328;50.812;4.422;2022-07-29T02:32:19;17.30;99.90
14485;DHT22;7328;50.812;4.422;2022-07-29T02:34:47;17.20;99.90
14485;DHT22;7328;50.812;4.422;2022-07-29T02:37:16;17.20;99.90
14485;DHT22;7328;50.812;4.422;2022-07-29T02:39:44;16.70;99.90
14485;DHT22;7328;50.812;4.422;2022-07-29T02:42:14;16.80;99.90
14485;DHT22;7328;50.812;4.422;2022-07-29T02:44:41;16.70;99.90
14485;DHT22;7328;50.812;4.422;2022-07-29T02:50:02;14.10;99.90
14485;DHT22;7328;50.812;4.422;2022-07-29T02:55:22;7.50;99.90
14485;DHT22;7328;50.812;4.422;2022-07-29T03:00:36;7.90;99.90
14485;DHT22;7328;50.812;4.422;2022-07-29T03:03:06;8.30;99.90
14485;DHT22;7328;50.812;4.422;2022-07-29T03:05:33;8.20;99.90
14485;DHT22;7328;50.812;4.422;2022-07-29T03:08:04;7.90;99.90
14485;DHT22;7328;50.812;4.422;2022-07-29T03:10:31;7.80;99.90
14485;DHT22;7328;50.812;4.422;2022-07-29T03:12:58;7.60;99.90
14485;DHT22;7328;50.812;4.422;2022-07-29T03:15:24;7.70;99.90
14485;DHT22;7328;50.812;4.422;2022-07-29T03:17:51;7.60;99.90
14485;DHT22;7328;50.812;4.422;2022-07-29T03:20:18;7.60;99.90
14485;DHT22;7328;50.812;4.422;2022-07-29T03:22:44;7.40;99.90
14485;DHT22;7328;50.812;4.422;2022-07-29T03:25:14;7.70;99.90
14485;DHT22;7328;50.812;4.422;2022-07-29T03:27:41;7.40;99.90
14485;DHT22;7328;50.812;4.422;2022-07-29T03:30:07;7.20;99.90
14485;DHT22;7328;50.812;4.422;2022-07-29T03:32:34;7.50;99.90
14485;DHT22;7328;50.812;4.422;2022-07-29T03:35:00;7.50;99.90
14485;DHT22;7328;50.812;4.422;2022-07-29T03:37:26;7.20;99.90
14485;DHT22;7328;50.812;4.422;2022-07-29T03:39:52;7.30;99.90
14485;DHT22;7328;50.812;4.422;2022-07-29T03:42:21;7.50;99.90
14485;DHT22;7328;50.812;4.422;2022-07-29T03:44:48;7.70;99.90
14485;DHT22;7328;50.812;4.422;2022-07-29T03:47:18;7.40;99.90
14485;DHT22;7328;50.812;4.422;2022-07-29T03:49:46;7.30;99.90
14485;DHT22;7328;50.812;4.422;2022-07-29T03:52:16;7.10;99.90
14485;DHT22;7328;50.812;4.422;2022-07-29T03:54:42;7.00;99.90
14485;DHT22;7328;50.812;4.422;2022-07-29T03:57:10;6.60;99.90
14485;DHT22;7328;50.812;4.422;2022-07-29T03:59:37;6.90;99.90
14485;DHT22;7328;50.812;4.422;2022-07-29T04:02:04;6.70;99.90
14485;DHT22;7328;50.812;4.422;2022-07-29T04:04:36;8.80;99.90
14485;DHT22;7328;50.812;4.422;2022-07-29T04:07:03;7.30;99.90
14485;DHT22;7328;50.812;4.422;2022-07-29T04:09:29;6.90;99.90
14485;DHT22;7328;50.812;4.422;2022-07-29T04:11:55;6.60;99.90
14485;DHT22;7328;50.812;4.422;2022-07-29T04:14:20;6.70;99.90
14485;DHT22;7328;50.812;4.422;2022-07-29T04:16:47;7.30;99.90
14485;DHT22;7328;50.812;4.422;2022-07-29T04:19:13;7.70;99.90
14485;DHT22;7328;50.812;4.422;2022-07-29T04:21:40;7.50;99.90
14485;DHT22;7328;50.812;4.422;2022-07-29T04:24:06;6.70;99.90
14485;DHT22;7328;50.812;4.422;2022-07-29T04:26:33;6.90;99.90
14485;DHT22;7328;50.812;4.422;2022-07-29T04:28:59;7.10;99.90
14485;DHT22;7328;50.812;4.422;2022-07-29T04:31:25;6.80;99.90
14485;DHT22;7328;50.812;4.422;2022-07-29T04:33:51;6.30;99.90
14485;DHT22;7328;50.812;4.422;2022-07-29T04:36:16;6.70;99.90
14485;DHT22;7328;50.812;4.422;2022-07-29T04:38:42;6.40;99.90
14485;DHT22;7328;50.812;4.422;2022-07-29T04:41:08;6.20;99.90
14485;DHT22;7328;50.812;4.422;2022-07-29T04:43:35;5.80;99.90
14485;DHT22;7328;50.812;4.422;2022-07-29T04:46:02;6.70;99.90
14485;DHT22;7328;50.812;4.422;2022-07-29T04:48:28;6.10;99.90
14485;DHT22;7328;50.812;4.422;2022-07-29T04:50:55;6.70;99.90
14485;DHT22;7328;50.812;4.422;2022-07-29T04:53:21;6.00;99.90
14485;DHT22;7328;50.812;4.422;2022-07-29T04:55:47;6.20;99.90
14485;DHT22;7328;50.812;4.422;2022-07-29T04:58:13;6.10;99.90
14485;DHT22;7328;50.812;4.422;2022-07-29T05:00:39;5.50;99.90
14485;DHT22;7328;50.812;4.422;2022-07-29T05:03:05;6.50;99.90
14485;DHT22;7328;50.812;4.422;2022-07-29T05:05:31;6.10;99.90
14485;DHT22;7328;50.812;4.422;2022-07-29T05:07:56;5.80;99.90
14485;DHT22;7328;50.812;4.422;2022-07-29T05:10:22;5.30;99.90
14485;DHT22;7328;50.812;4.422;2022-07-29T05:12:48;4.90;99.90
14485;DHT22;7328;50.812;4.422;2022-07-29T05:15:14;4.90;99.90
14485;DHT22;7328;50.812;4.422;2022-07-29T05:17:40;4.70;99.90
14485;DHT22;7328;50.812;4.422;2022-07-29T05:20:07;4.70;99.90
14485;DHT22;7328;50.812;4.422;2022-07-29T05:22:33;4.90;99.90
14485;DHT22;7328;50.812;4.422;2022-07-29T05:24:59;4.70;99.90
14485;DHT22;7328;50.812;4.422;2022-07-29T05:27:25;4.90;99.90
14485;DHT22;7328;50.812;4.422;2022-07-29T05:29:51;4.90;99.90
14485;DHT22;7328;50.812;4.422;2022-07-29T05:32:16;4.60;99.90
14485;DHT22;7328;50.812;4.422;2022-07-29T05:34:42;4.60;99.90
14485;DHT22;7328;50.812;4.422;2022-07-29T05:37:08;4.60;99.90
14485;DHT22;7328;50.812;4.422;2022-07-29T05:39:34;4.70;99.90
14485;DHT22;7328;50.812;4.422;2022-07-29T05:42:01;5.30;99.90
14485;DHT22;7328;50.812;4.422;2022-07-29T05:44:27;5.60;99.90
14485;DHT22;7328;50.812;4.422;2022-07-29T05:46:53;5.90;99.90
14485;DHT22;7328;50.812;4.422;2022-07-29T05:49:19;5.60;99.90
14485;DHT22;7328;50.812;4.422;2022-07-29T05:51:46;6.00;99.90
14485;DHT22;7328;50.812;4.422;2022-07-29T05:54:14;6.10;99.90
14485;DHT22;7328;50.812;4.422;2022-07-29T05:56:40;5.90;99.90
14485;DHT22;7328;50.812;4.422;2022-07-29T05:59:06;5.50;99.90
14485;DHT22;7328;50.812;4.422;2022-07-29T06:01:32;5.80;99.90
14485;DHT22;7328;50.812;4.422;2022-07-29T06:03:59;5.50;99.90
14485;DHT22;7328;50.812;4.422;2022-07-29T06:06:26;6.50;99.90
14485;DHT22;7328;50.812;4.422;2022-07-29T06:08:52;6.00;99.90
14485;DHT22;7328;50.812;4.422;2022-07-29T06:11:17;6.20;99.90
14485;DHT22;7328;50.812;4.422;2022-07-29T06:13:43;6.20;99.90
14485;DHT22;7328;50.812;4.422;2022-07-29T06:16:09;6.10;99.90
14485;DHT22;7328;50.812;4.422;2022-07-29T06:18:35;6.00;99.90
14485;DHT22;7328;50.812;4.422;2022-07-29T06:21:01;8.20;99.90
14485;DHT22;7328;50.812;4.422;2022-07-29T06:23:26;6.30;99.90
14485;DHT22;7328;50.812;4.422;2022-07-29T06:25:52;5.60;99.90
14485;DHT22;7328;50.812;4.422;2022-07-29T06:28:18;5.40;99.90
14485;DHT22;7328;50.812;4.422;2022-07-29T06:30:44;5.70;99.90
14485;DHT22;7328;50.812;4.422;2022-07-29T06:33:16;5.60;99.90
14485;DHT22;7328;50.812;4.422;2022-07-29T06:35:42;5.90;99.90
14485;DHT22;7328;50.812;4.422;2022-07-29T06:38:09;6.10;99.90
14485;DHT22;7328;50.812;4.422;2022-07-29T06:40:35;5.60;99.90
14485;DHT22;7328;50.812;4.422;2022-07-29T06:43:19;5.50;99.90
14485;DHT22;7328;50.812;4.422;2022-07-29T06:45:46;5.80;99.90
14485;DHT22;7328;50.812;4.422;2022-07-29T06:48:12;6.20;99.90
14485;DHT22;7328;50.812;4.422;2022-07-29T06:50:37;6.60;99.90
14485;DHT22;7328;50.812;4.422;2022-07-29T06:53:03;6.20;99.90
14485;DHT22;7328;50.812;4.422;2022-07-29T06:55:29;6.50;99.90
14485;DHT22;7328;50.812;4.422;2022-07-29T06:57:55;7.10;99.90
14485;DHT22;7328;50.812;4.422;2022-07-29T07:00:20;7.30;99.90
14485;DHT22;7328;50.812;4.422;2022-07-29T07:02:46;7.90;99.90
14485;DHT22;7328;50.812;4.422;2022-07-29T07:05:12;7.50;99.90
14485;DHT22;7328;50.812;4.422;2022-07-29T07:07:38;7.30;99.90
14485;DHT22;7328;50.812;4.422;2022-07-29T07:10:04;8.40;99.90
14485;DHT22;7328;50.812;4.422;2022-07-29T07:12:30;9.10;99.90
14485;DHT22;7328;50.812;4.422;2022-07-29T07:14:55;9.70;99.90
14485;DHT22;7328;50.812;4.422;2022-07-29T07:17:21;9.50;99.90
14485;DHT22;7328;50.812;4.422;2022-07-29T07:19:47;9.40;99.90
14485;DHT22;7328;50.812;4.422;2022-07-29T07:22:12;9.40;99.90
14485;DHT22;7328;50.812;4.422;2022-07-29T07:24:38;9.50;99.90
14485;DHT22;7328;50.812;4.422;2022-07-29T07:27:04;9.20;99.90
14485;DHT22;7328;50.812;4.422;2022-07-29T07:29:33;8.70;99.90
14485;DHT22;7328;50.812;4.422;2022-07-29T07:31:58;8.60;99.90
14485;DHT22;7328;50.812;4.422;2022-07-29T07:34:24;8.30;99.90
14485;DHT22;7328;50.812;4.422;2022-07-29T07:36:50;8.50;99.90
14485;DHT22;7328;50.812;4.422;2022-07-29T07:39:16;8.30;99.90
14485;DHT22;7328;50.812;4.422;2022-07-29T07:41:42;8.20;99.90
14485;DHT22;7328;50.812;4.422;2022-07-29T07:44:07;8.10;99.90
14485;DHT22;7328;50.812;4.422;2022-07-29T07:46:33;7.50;99.90
14485;DHT22;7328;50.812;4.422;2022-07-29T07:48:59;7.60;99.90
14485;DHT22;7328;50.812;4.422;2022-07-29T07:51:24;7.10;99.90
14485;DHT22;7328;50.812;4.422;2022-07-29T07:53:50;7.00;99.90
14485;DHT22;7328;50.812;4.422;2022-07-29T07:56:16;6.90;99.90
14485;DHT22;7328;50.812;4.422;2022-07-29T07:58:42;6.70;99.90
14485;DHT22;7328;50.812;4.422;2022-07-29T08:01:08;6.60;99.90
14485;DHT22;7328;50.812;4.422;2022-07-29T08:03:34;6.70;99.90
14485;DHT22;7328;50.812;4.422;2022-07-29T08:06:01;6.80;99.90
14485;DHT22;7328;50.812;4.422;2022-07-29T08:08:26;7.10;99.90
14485;DHT22;7328;50.812;4.422;2022-07-29T08:10:52;7.60;99.90
14485;DHT22;7328;50.812;4.422;2022-07-29T08:13:22;9.10;99.90
14485;DHT22;7328;50.812;4.422;2022-07-29T08:15:49;8.60;99.90
14485;DHT22;7328;50.812;4.422;2022-07-29T08:18:24;9.70;99.90
14485;DHT22;7328;50.812;4.422;2022-07-29T08:20:50;9.10;99.90
14485;DHT22;7328;50.812;4.422;2022-07-29T08:23:16;9.30;99.90
14485;DHT22;7328;50.812;4.422;2022-07-29T08:25:42;10.60;99.90
14485;DHT22;7328;50.812;4.422;2022-07-29T08:28:08;10.10;99.90
14485;DHT22;7328;50.812;4.422;2022-07-29T08:30:34;10.30;99.90
14485;DHT22;7328;50.812;4.422;2022-07-29T08:33:00;10.10;99.90
14485;DHT22;7328;50.812;4.422;2022-07-29T08:35:26;10.40;99.90
14485;DHT22;7328;50.812;4.422;2022-07-29T08:37:53;10.70;99.90
14485;DHT22;7328;50.812;4.422;2022-07-29T08:40:20;11.00;99.90
14485;DHT22;7328;50.812;4.422;2022-07-29T08:42:46;10.50;99.90
14485;DHT22;7328;50.812;4.422;2022-07-29T08:45:12;11.00;99.90
14485;DHT22;7328;50.812;4.422;2022-07-29T08:47:39;10.60;99.90
14485;DHT22;7328;50.812;4.422;2022-07-29T08:50:06;10.80;99.90
14485;DHT22;7328;50.812;4.422;2022-07-29T08:52:36;11.40;99.90
14485;DHT22;7328;50.812;4.422;2022-07-29T08:58:25;12.20;99.90
14485;DHT22;7328;50.812;4.422;2022-07-29T09:00:53;11.80;99.90
14485;DHT22;7328;50.812;4.422;2022-07-29T09:03:23;11.10;99.90
14485;DHT22;7328;50.812;4.422;2022-07-29T09:05:50;10.00;99.90
14485;DHT22;7328;50.812;4.422;2022-07-29T09:08:19;10.10;99.90
14485;DHT22;7328;50.812;4.422;2022-07-29T09:10:45;11.10;99.90
14485;DHT22;7328;50.812;4.422;2022-07-29T09:13:11;11.10;99.90
14485;DHT22;7328;50.812;4.422;2022-07-29T09:15:37;10.90;99.90
14485;DHT22;7328;50.812;4.422;2022-07-29T09:18:03;10.50;99.90
14485;DHT22;7328;50.812;4.422;2022-07-29T09:20:29;10.20;99.90
14485;DHT22;7328;50.812;4.422;2022-07-29T09:23:15;9.70;99.00
14485;DHT22;7328;50.812;4.422;2022-07-29T09:25:41;9.10;98.40
14485;DHT22;7328;50.812;4.422;2022-07-29T09:28:12;8.80;98.30
14485;DHT22;7328;50.812;4.422;2022-07-29T09:30:56;7.40;97.20
14485;DHT22;7328;50.812;4.422;2022-07-29T09:33:30;7.30;95.50
14485;DHT22;7328;50.812;4.422;2022-07-29T09:38:31;22.40;99.90
14485;DHT22;7328;50.812;4.422;2022-07-29T09:40:57;22.50;99.80
14485;DHT22;7328;50.812;4.422;2022-07-29T09:43:23;22.70;99.90
14485;DHT22;7328;50.812;4.422;2022-07-29T09:45:49;22.10;99.90
14485;DHT22;7328;50.812;4.422;2022-07-29T09:48:20;1.40;93.30
14485;DHT22;7328;50.812;4.422;2022-07-29T09:50:46;-0.60;91.80
14485;DHT22;7328;50.812;4.422;2022-07-29T09:53:32;-11.70;86.30
14485;DHT22;7328;50.812;4.422;2022-07-29T09:55:58;-11.00;86.60
14485;DHT22;7328;50.812;4.422;2022-07-29T09:58:24;-12.30;86.90
14485;DHT22;7328;50.812;4.422;2022-07-29T10:00:51;-9.30;87.90
14485;DHT22;7328;50.812;4.422;2022-07-29T10:03:18;-14.10;84.60
14485;DHT22;7328;50.812;4.422;2022-07-29T10:05:45;-25.20;76.70
14485;DHT22;7328;50.812;4.422;2022-07-29T10:08:12;-25.80;75.30
14485;DHT22;7328;50.812;4.422;2022-07-29T10:10:40;-29.20;72.60
14485;DHT22;7328;50.812;4.422;2022-07-29T10:13:13;-36.20;67.30
14485;DHT22;7328;50.812;4.422;2022-07-29T10:15:41;-38.70;66.40
14485;DHT22;7328;50.812;4.422;2022-07-29T10:18:11;-40.00;63.70
14485;DHT22;7328;50.812;4.422;2022-07-29T10:20:38;-40.00;63.70
14485;DHT22;7328;50.812;4.422;2022-07-29T10:23:04;24.30;96.40
14485;DHT22;7328;50.812;4.422;2022-07-29T10:25:30;24.50;95.90
14485;DHT22;7328;50.812;4.422;2022-07-29T10:27:57;24.70;95.60
14485;DHT22;7328;50.812;4.422;2022-07-29T10:30:25;24.70;96.20
14485;DHT22;7328;50.812;4.422;2022-07-29T10:44:09;-40.00;57.90
14485;DHT22;7328;50.812;4.422;2022-07-29T10:46:40;-38.00;60.10
14485;DHT22;7328;50.812;4.422;2022-07-29T10:49:06;-40.00;57.80
14485;DHT22;7328;50.812;4.422;2022-07-29T10:52:04;-40.00;58.90
14485;DHT22;7328;50.812;4.422;2022-07-29T10:57:27;-37.30;58.40
14485;DHT22;7328;50.812;4.422;2022-07-29T11:05:17;26.00;92.50
14485;DHT22;7328;50.812;4.422;2022-07-29T11:10:39;25.90;93.30
14485;DHT22;7328;50.812;4.422;2022-07-29T11:13:04;25.80;92.50
14485;DHT22;7328;50.812;4.422;2022-07-29T11:15:56;26.00;91.30
14485;DHT22;7328;50.812;4.422;2022-07-29T11:18:23;25.80;90.80
14485;DHT22;7328;50.812;4.422;2022-07-29T11:20:50;25.70;91.30
14485;DHT22;7328;50.812;4.422;2022-07-29T11:23:34;25.80;91.60
14485;DHT22;7328;50.812;4.422;2022-07-29T11:31:17;26.50;89.70
14485;DHT22;7328;50.812;4.422;2022-07-29T11:33:45;26.60;90.10
14485;DHT22;7328;50.812;4.422;2022-07-29T11:36:12;26.70;90.30
14485;DHT22;7328;50.812;4.422;2022-07-29T11:38:38;2.20;74.40
14485;DHT22;7328;50.812;4.422;2022-07-29T11:41:24;6.20;76.10
14485;DHT22;7328;50.812;4.422;2022-07-29T11:49:09;3.90;70.60
14485;DHT22;7328;50.812;4.422;2022-07-29T11:51:38;5.50;72.10
14485;DHT22;7328;50.812;4.422;2022-07-29T11:54:05;8.20;74.50
14485;DHT22;7328;50.812;4.422;2022-07-29T11:56:39;9.70;71.50
14485;DHT22;7328;50.812;4.422;2022-07-29T11:59:09;8.50;75.30
14485;DHT22;7328;50.812;4.422;2022-07-29T12:01:35;7.90;73.60
14485;DHT22;7328;50.812;4.422;2022-07-29T12:04:05;8.50;72.00
14485;DHT22;7328;50.812;4.422;2022-07-29T12:06:33;5.80;69.20
14485;DHT22;7328;50.812;4.422;2022-07-29T12:08:59;7.10;70.50
14485;DHT22;7328;50.812;4.422;2022-07-29T12:11:25;8.50;71.70
14485;DHT22;7328;50.812;4.422;2022-07-29T12:13:52;7.40;71.90
14485;DHT22;7328;50.812;4.422;2022-07-29T12:16:20;4.30;71.50
14485;DHT22;7328;50.812;4.422;2022-07-29T12:19:02;12.40;69.40
14485;DHT22;7328;50.812;4.422;2022-07-29T12:21:29;14.00;69.80
14485;DHT22;7328;50.812;4.422;2022-07-29T12:23:55;16.70;69.10
14485;DHT22;7328;50.812;4.422;2022-07-29T12:26:21;30.10;77.70
14485;DHT22;7328;50.812;4.422;2022-07-29T12:28:48;31.20;78.70
14485;DHT22;7328;50.812;4.422;2022-07-29T12:31:14;30.50;74.50
14485;DHT22;7328;50.812;4.422;2022-07-29T12:33:41;22.90;65.60
14485;DHT22;7328;50.812;4.422;2022-07-29T12:36:08;24.40;71.00
14485;DHT22;7328;50.812;4.422;2022-07-29T12:38:34;24.60;69.10
14485;DHT22;7328;50.812;4.422;2022-07-29T12:41:01;29.00;73.10
14485;DHT22;7328;50.812;4.422;2022-07-29T12:43:28;29.60;76.30
14485;DHT22;7328;50.812;4.422;2022-07-29T12:45:56;29.80;75.20
14485;DHT22;7328;50.812;4.422;2022-07-29T12:48:42;29.60;75.00
14485;DHT22;7328;50.812;4.422;2022-07-29T12:51:10;30.00;73.70
14485;DHT22;7328;50.812;4.422;2022-07-29T12:53:37;30.10;71.40
14485;DHT22;7328;50.812;4.422;2022-07-29T12:56:04;30.90;73.60
14485;DHT22;7328;50.812;4.422;2022-07-29T12:58:41;30.20;70.70
14485;DHT22;7328;50.812;4.422;2022-07-29T13:01:09;22.90;63.30
14485;DHT22;7328;50.812;4.422;2022-07-29T13:03:54;27.70;66.40
14485;DHT22;7328;50.812;4.422;2022-07-29T13:06:41;30.20;68.10
14485;DHT22;7328;50.812;4.422;2022-07-29T13:09:19;23.70;64.80
14485;DHT22;7328;50.812;4.422;2022-07-29T13:11:47;28.90;70.50
14485;DHT22;7328;50.812;4.422;2022-07-29T13:22:17;30.70;67.70
14485;DHT22;7328;50.812;4.422;2022-07-29T13:24:52;30.30;68.50
14485;DHT22;7328;50.812;4.422;2022-07-29T13:27:23;29.40;68.50
14485;DHT22;7328;50.812;4.422;2022-07-29T13:29:49;29.30;72.80
14485;DHT22;7328;50.812;4.422;2022-07-29T13:32:19;29.20;74.00
14485;DHT22;7328;50.812;4.422;2022-07-29T13:34:45;29.00;75.40
14485;DHT22;7328;50.812;4.422;2022-07-29T13:37:11;29.20;77.40
14485;DHT22;7328;50.812;4.422;2022-07-29T13:39:37;29.30;77.60
14485;DHT22;7328;50.812;4.422;2022-07-29T13:42:04;29.80;74.50
14485;DHT22;7328;50.812;4.422;2022-07-29T13:44:31;29.90;73.30
14485;DHT22;7328;50.812;4.422;2022-07-29T13:46:57;28.40;71.70
14485;DHT22;7328;50.812;4.422;2022-07-29T13:49:24;28.30;72.40
14485;DHT22;7328;50.812;4.422;2022-07-29T13:51:50;27.50;70.00
14485;DHT22;7328;50.812;4.422;2022-07-29T13:54:16;27.80;73.50
14485;DHT22;7328;50.812;4.422;2022-07-29T13:56:42;28.00;73.50
14485;DHT22;7328;50.812;4.422;2022-07-29T13:59:08;28.00;69.20
14485;DHT22;7328;50.812;4.422;2022-07-29T14:01:37;28.10;68.40
14485;DHT22;7328;50.812;4.422;2022-07-29T14:04:03;28.10;67.00
14485;DHT22;7328;50.812;4.422;2022-07-29T14:06:29;28.30;68.70
14485;DHT22;7328;50.812;4.422;2022-07-29T14:08:55;30.40;67.90
14485;DHT22;7328;50.812;4.422;2022-07-29T14:11:21;31.60;68.00
14485;DHT22;7328;50.812;4.422;2022-07-29T14:13:46;31.90;66.70
14485;DHT22;7328;50.812;4.422;2022-07-29T14:16:12;26.30;61.70
14485;DHT22;7328;50.812;4.422;2022-07-29T14:18:38;14.20;54.80
14485;DHT22;7328;50.812;4.422;2022-07-29T14:21:03;4.20;49.30
14485;DHT22;7328;50.812;4.422;2022-07-29T14:23:29;-2.20;45.60
14485;DHT22;7328;50.812;4.422;2022-07-29T14:25:55;33.90;63.70
14485;DHT22;7328;50.812;4.422;2022-07-29T14:28:21;33.80;61.10
14485;DHT22;7328;50.812;4.422;2022-07-29T14:30:47;34.00;60.10
14485;DHT22;7328;50.812;4.422;2022-07-29T14:33:13;33.90;60.50
14485;DHT22;7328;50.812;4.422;2022-07-29T14:35:39;35.10;59.40
14485;DHT22;7328;50.812;4.422;2022-07-29T14:38:04;35.40;57.50
14485;DHT22;7328;50.812;4.422;2022-07-29T14:40:30;35.20;56.20
14485;DHT22;7328;50.812;4.422;2022-07-29T14:42:56;34.70;57.40
14485;DHT22;7328;50.812;4.422;2022-07-29T14:45:22;34.90;56.90
14485;DHT22;7328;50.812;4.422;2022-07-29T14:47:48;35.30;55.10
14485;DHT22;7328;50.812;4.422;2022-07-29T14:50:16;34.90;54.80
14485;DHT22;7328;50.812;4.422;2022-07-29T14:52:42;34.30;56.80
14485;DHT22;7328;50.812;4.422;2022-07-29T14:55:08;34.20;56.40
14485;DHT22;7328;50.812;4.422;2022-07-29T14:57:34;34.80;57.00
14485;DHT22;7328;50.812;4.422;2022-07-29T15:00:00;35.00;55.10
14485;DHT22;7328;50.812;4.422;2022-07-29T15:02:26;34.20;55.70
14485;DHT22;7328;50.812;4.422;2022-07-29T15:04:52;33.50;55.20
14485;DHT22;7328;50.812;4.422;2022-07-29T15:07:17;32.70;55.90
14485;DHT22;7328;50.812;4.422;2022-07-29T15:09:43;33.40;57.40
14485;DHT22;7328;50.812;4.422;2022-07-29T15:12:11;33.30;55.20
14485;DHT22;7328;50.812;4.422;2022-07-29T15:14:37;31.60;52.70
14485;DHT22;7328;50.812;4.422;2022-07-29T15:17:03;33.30;54.50
14485;DHT22;7328;50.812;4.422;2022-07-29T15:19:29;32.70;56.70
14485;DHT22;7328;50.812;4.422;2022-07-29T15:21:54;6.00;45.10
14485;DHT22;7328;50.812;4.422;2022-07-29T15:24:20;32.10;58.50
14485;DHT22;7328;50.812;4.422;2022-07-29T15:26:47;31.90;60.70
14485;DHT22;7328;50.812;4.422;2022-07-29T15:29:14;33.00;62.60
14485;DHT22;7328;50.812;4.422;2022-07-29T15:31:41;30.80;55.40
14485;DHT22;7328;50.812;4.422;2022-07-29T15:34:06;33.90;57.20
14485;DHT22;7328;50.812;4.422;2022-07-29T15:36:32;14.50;47.90
14485;DHT22;7328;50.812;4.422;2022-07-29T15:38:58;14.60;46.80
14485;DHT22;7328;50.812;4.422;2022-07-29T15:41:24;30.90;53.30
14485;DHT22;7328;50.812;4.422;2022-07-29T15:43:49;32.30;54.20
14485;DHT22;7328;50.812;4.422;2022-07-29T15:46:18;32.60;54.50
14485;DHT22;7328;50.812;4.422;2022-07-29T15:49:04;32.10;55.10
14485;DHT22;7328;50.812;4.422;2022-07-29T15:51:31;31.60;53.60
14485;DHT22;7328;50.812;4.422;2022-07-29T15:53:57;29.10;51.30
14485;DHT22;7328;50.812;4.422;2022-07-29T15:56:23;30.20;53.20
14485;DHT22;7328;50.812;4.422;2022-07-29T15:58:49;18.50;42.80
14485;DHT22;7328;50.812;4.422;2022-07-29T16:01:16;28.80;48.20
14485;DHT22;7328;50.812;4.422;2022-07-29T16:03:42;35.20;51.90
14485;DHT22;7328;50.812;4.422;2022-07-29T16:06:08;35.30;52.60
14485;DHT22;7328;50.812;4.422;2022-07-29T16:08:34;33.30;51.90
14485;DHT22;7328;50.812;4.422;2022-07-29T16:11:00;10.80;41.20
14485;DHT22;7328;50.812;4.422;2022-07-29T16:13:25;6.90;41.50
14485;DHT22;7328;50.812;4.422;2022-07-29T16:15:51;6.30;40.40
14485;DHT22;7328;50.812;4.422;2022-07-29T16:18:17;4.00;40.50
14485;DHT22;7328;50.812;4.422;2022-07-29T16:20:43;5.70;43.90
14485;DHT22;7328;50.812;4.422;2022-07-29T16:23:09;5.20;42.00
14485;DHT22;7328;50.812;4.422;2022-07-29T16:25:39;7.70;43.70
14485;DHT22;7328;50.812;4.422;2022-07-29T16:28:06;8.50;41.60
14485;DHT22;7328;50.812;4.422;2022-07-29T16:30:35;7.80;41.50
14485;DHT22;7328;50.812;4.422;2022-07-29T16:33:02;11.10;44.40
14485;DHT22;7328;50.812;4.422;2022-07-29T16:35:28;9.40;42.20
14485;DHT22;7328;50.812;4.422;2022-07-29T16:37:57;11.20;43.00
14485;DHT22;7328;50.812;4.422;2022-07-29T16:40:23;10.90;43.60
14485;DHT22;7328;50.812;4.422;2022-07-29T16:42:48;11.70;43.00
14485;DHT22;7328;50.812;4.422;2022-07-29T16:45:15;11.20;43.80
14485;DHT22;7328;50.812;4.422;2022-07-29T16:47:41;11.50;43.30
14485;DHT22;7328;50.812;4.422;2022-07-29T16:50:08;10.30;43.10
14485;DHT22;7328;50.812;4.422;2022-07-29T16:52:33;10.40;43.80
14485;DHT22;7328;50.812;4.422;2022-07-29T16:55:00;10.30;43.20
14485;DHT22;7328;50.812;4.422;2022-07-29T16:57:26;8.40;43.30
14485;DHT22;7328;50.812;4.422;2022-07-29T16:59:52;9.20;43.60
14485;DHT22;7328;50.812;4.422;2022-07-29T17:02:17;5.00;41.60
14485;DHT22;7328;50.812;4.422;2022-07-29T17:04:43;-3.90;38.80
14485;DHT22;7328;50.812;4.422;2022-07-29T17:07:09;-4.10;40.80